Time;durP1;ratioP1;P1;durP2;ratioP2;P2;SDS_P1;SDS_P2;PMS_P1;PMS_P2;Temp;Humidity;BMP_temperature;BMP_pressure;BME280_temperature;BME280_humidity;BME280_pressure;Samples;Min_cycle;Max_cycle;Signal;HPM_P1;HPM_P2
2023/05/20 00:01:59;;;;;;;;;;;;;;;8.10;63.40;102735.56;5043933;28;19935;-73
2023/05/20 00:04:25;;;;;;;;;;;;;;;8.50;62.03;102740.94;5048518;28;19958;-72
2023/05/20 00:06:51;;;;;;;;;;;;;;;8.38;63.45;102738.88;5043727;28;19943;-73
2023/05/20 00:09:17;;;;;;;;;;;;;;;8.52;62.82;102739.69;5059658;28;19941;-72
2023/05/20 00:11:43;;;;;;;;;;;;;;;8.37;62.26;102736.41;5065789;28;20440;-74
2023/05/20 00:14:08;;;;;;;;;;;;;;;8.27;64.11;102742.16;5058713;28;19967;-74
2023/05/20 00:16:34;;;;;;;;;;;;;;;8.17;65.23;102739.03;5058556;28;20080;-72
2023/05/20 00:19:00;;;;;;;;;;;;;;;8.03;64.72;102740.06;5059359;28;19933;-72
2023/05/20 00:21:25;;;;;;;;;;;;;;;8.12;63.87;102733.50;5043575;28;19933;-72
2023/05/20 00:23:50;;;;;;;;;;;;;;;7.98;66.23;102737.19;5049278;28;19942;-72
2023/05/20 00:26:16;;;;;;;;;;;;;;;7.92;65.47;102736.13;5057749;28;19954;-70
2023/05/20 00:28:43;;;;;;;;;;;;;;;7.93;66.77;102743.16;5044955;28;19947;-71
2023/05/20 00:31:09;;;;;;;;;;;;;;;7.94;65.25;102740.25;5046592;28;19937;-72
2023/05/20 00:33:35;;;;;;;;;;;;;;;8.17;64.95;102744.38;5054548;28;20049;-71
2023/05/20 00:36:01;;;;;;;;;;;;;;;8.10;64.41;102735.56;5064618;28;19958;-74
2023/05/20 00:38:27;;;;;;;;;;;;;;;8.11;64.37;102746.03;5061938;28;19939;-73
2023/05/20 00:40:52;;;;;;;;;;;;;;;8.25;63.84;102743.34;5044807;28;19937;-71
2023/05/20 00:43:19;;;;;;;;;;;;;;;8.15;64.79;102739.25;5051518;28;19939;-71
2023/05/20 00:45:45;;;;;;;;;;;;;;;8.13;64.22;102737.81;5066783;28;19958;-71
2023/05/20 00:48:12;;;;;;;;;;;;;;;8.14;64.16;102736.81;5059705;28;20076;-71
2023/05/20 00:50:38;;;;;;;;;;;;;;;8.23;64.40;102740.91;5059301;28;20026;-70
2023/05/20 00:53:04;;;;;;;;;;;;;;;8.16;67.31;102740.06;5045304;28;19961;-71
2023/05/20 00:55:30;;;;;;;;;;;;;;;8.15;63.91;102733.09;5044549;28;19991;-70
2023/05/20 00:57:56;;;;;;;;;;;;;;;8.26;64.36;102731.66;5058138;28;20388;-73
2023/05/20 01:00:21;;;;;;;;;;;;;;;8.19;65.13;102731.66;5053161;28;20383;-71
2023/05/20 01:02:47;;;;;;;;;;;;;;;8.12;64.79;102728.16;5052126;28;19958;-72
2023/05/20 01:05:16;;;;;;;;;;;;;;;8.18;64.77;102730.00;5038565;28;19958;-72
2023/05/20 01:07:41;;;;;;;;;;;;;;;8.29;63.82;102726.72;5052812;28;19980;-73
2023/05/20 01:10:08;;;;;;;;;;;;;;;8.31;64.13;102726.53;5041888;28;20044;-73
2023/05/20 01:12:36;;;;;;;;;;;;;;;8.26;65.39;102724.47;5034871;28;20382;-71
2023/05/20 01:15:07;;;;;;;;;;;;;;;8.15;65.43;102728.59;5056817;28;20039;-72
2023/05/20 01:17:36;;;;;;;;;;;;;;;8.03;65.82;102721.38;5058749;28;20001;-72
2023/05/20 01:20:03;;;;;;;;;;;;;;;7.97;65.55;102719.53;5045980;28;19947;-74
2023/05/20 01:22:28;;;;;;;;;;;;;;;7.87;66.51;102718.09;5036572;28;19933;-71
2023/05/20 01:24:55;;;;;;;;;;;;;;;7.86;65.77;102719.13;5060440;28;20341;-72
2023/05/20 01:27:22;;;;;;;;;;;;;;;7.83;67.43;102726.69;5060083;28;20235;-71
2023/05/20 01:29:49;;;;;;;;;;;;;;;7.78;66.42;102716.63;5046458;28;19936;-70
2023/05/20 01:32:19;;;;;;;;;;;;;;;7.70;68.29;102732.00;5026340;28;19941;-72
2023/05/20 01:34:46;;;;;;;;;;;;;;;7.73;65.63;102732.44;5060298;28;20717;-72
2023/05/20 01:37:14;;;;;;;;;;;;;;;7.76;66.28;102728.53;5060405;28;19931;-71
2023/05/20 01:39:42;;;;;;;;;;;;;;;7.72;68.28;102722.75;5057886;28;19944;-73
2023/05/20 01:42:09;;;;;;;;;;;;;;;7.69;67.19;102723.19;5047613;28;19963;-72
2023/05/20 01:44:35;;;;;;;;;;;;;;;7.66;67.54;102724.41;5062274;28;19953;-73
2023/05/20 01:47:01;;;;;;;;;;;;;;;7.62;67.91;102727.69;5062900;28;19941;-71
2023/05/20 01:49:26;;;;;;;;;;;;;;;7.54;67.33;102726.03;5048567;28;19984;-69
2023/05/20 01:51:52;;;;;;;;;;;;;;;7.60;67.51;102727.06;5041204;28;20314;-70
2023/05/20 01:54:18;;;;;;;;;;;;;;;7.59;67.02;102722.75;5057869;28;20042;-71
2023/05/20 01:56:45;;;;;;;;;;;;;;;7.54;69.33;102723.34;5042579;28;19934;-70
2023/05/20 01:59:10;;;;;;;;;;;;;;;7.50;67.46;102723.94;5063237;28;20015;-71
2023/05/20 02:01:35;;;;;;;;;;;;;;;7.45;67.97;102718.38;5059762;28;20490;-71
2023/05/20 02:04:01;;;;;;;;;;;;;;;7.42;67.86;102726.78;5065448;28;19934;-72
2023/05/20 02:06:28;;;;;;;;;;;;;;;7.30;68.56;102727.34;5041725;28;19949;-73
2023/05/20 02:08:54;;;;;;;;;;;;;;;7.27;69.08;102733.09;5046349;28;19936;-73
2023/05/20 02:11:20;;;;;;;;;;;;;;;7.23;68.53;102723.84;5046594;28;19931;-73
2023/05/20 02:13:45;;;;;;;;;;;;;;;7.17;69.39;102729.97;5064357;28;19990;-73
2023/05/20 02:16:11;;;;;;;;;;;;;;;7.21;69.90;102725.91;5056785;28;20443;-72
2023/05/20 02:18:37;;;;;;;;;;;;;;;7.28;68.19;102723.25;5047671;28;19938;-71
2023/05/20 02:21:04;;;;;;;;;;;;;;;7.24;69.17;102720.16;5044400;28;19977;-72
2023/05/20 02:23:32;;;;;;;;;;;;;;;7.24;68.80;102725.47;5058168;28;19942;-73
2023/05/20 02:25:58;;;;;;;;;;;;;;;7.20;69.49;102721.59;5059819;28;20014;-72
2023/05/20 02:28:23;;;;;;;;;;;;;;;7.16;69.56;102711.53;5064727;28;20369;-74
2023/05/20 02:30:52;;;;;;;;;;;;;;;7.21;69.30;102704.56;5065360;28;20456;-73
2023/05/20 02:33:18;;;;;;;;;;;;;;;7.16;70.03;102704.34;5058628;28;20009;-73
2023/05/20 02:35:44;;;;;;;;;;;;;;;7.15;70.34;102702.69;5021274;28;20003;-73
2023/05/20 02:38:11;;;;;;;;;;;;;;;7.06;71.59;102701.25;5041076;28;19941;-73
2023/05/20 02:40:36;;;;;;;;;;;;;;;7.09;71.88;102712.31;5048183;28;19938;-72
2023/05/20 02:43:02;;;;;;;;;;;;;;;7.04;72.22;102698.75;5057416;28;19986;-73
2023/05/20 02:45:28;;;;;;;;;;;;;;;7.15;72.21;102702.69;5062564;28;19961;-74
2023/05/20 02:47:53;;;;;;;;;;;;;;;7.12;72.24;102695.13;5059789;28;19943;-72
2023/05/20 02:50:18;;;;;;;;;;;;;;;7.20;72.25;102712.78;5027071;28;19947;-72
2023/05/20 02:52:45;;;;;;;;;;;;;;;7.16;73.04;102707.00;5064137;28;19959;-73
2023/05/20 02:55:10;;;;;;;;;;;;;;;7.31;72.50;102706.84;5050807;28;19943;-74
2023/05/20 02:57:37;;;;;;;;;;;;;;;7.36;72.95;102712.41;5067587;28;19931;-73
2023/05/20 03:00:05;;;;;;;;;;;;;;;7.35;73.85;102706.25;5064446;28;20433;-72
2023/05/20 03:02:31;;;;;;;;;;;;;;;7.38;73.60;102705.88;5033169;28;20376;-71
2023/05/20 03:04:57;;;;;;;;;;;;;;;7.50;73.33;102707.94;5057663;28;19960;-72
2023/05/20 03:07:22;;;;;;;;;;;;;;;7.47;72.98;102711.84;5058600;28;19935;-72
2023/05/20 03:09:48;;;;;;;;;;;;;;;7.39;73.84;102709.38;5064813;28;19947;-71
2023/05/20 03:12:14;;;;;;;;;;;;;;;7.33;74.39;102718.97;5059794;28;19958;-71
2023/05/20 03:14:39;;;;;;;;;;;;;;;7.24;74.80;102725.47;5044765;28;19966;-71
2023/05/20 03:17:07;;;;;;;;;;;;;;;7.26;75.08;102719.97;5050031;28;20063;-70
2023/05/20 03:19:33;;;;;;;;;;;;;;;7.33;75.08;102716.31;5051720;28;19941;-71
2023/05/20 03:21:59;;;;;;;;;;;;;;;7.28;75.56;102709.94;5063375;28;20658;-72
2023/05/20 03:24:25;;;;;;;;;;;;;;;7.18;76.12;102710.31;5059687;28;19992;-71
2023/05/20 03:26:51;;;;;;;;;;;;;;;7.14;76.13;102717.06;5061148;28;20035;-71
2023/05/20 03:29:16;;;;;;;;;;;;;;;7.27;76.07;102714.44;5060738;28;19970;-71
2023/05/20 03:31:42;;;;;;;;;;;;;;;7.43;75.77;102715.94;5053051;28;20146;-71
2023/05/20 03:34:08;;;;;;;;;;;;;;;7.36;76.32;102712.41;5062691;28;19968;-71
2023/05/20 03:36:34;;;;;;;;;;;;;;;7.43;76.32;102718.59;5050148;28;19931;-72
2023/05/20 03:39:00;;;;;;;;;;;;;;;7.48;76.29;102707.34;5061084;28;19986;-73
2023/05/20 03:41:27;;;;;;;;;;;;;;;7.48;76.47;102712.66;5059844;28;19947;-75
2023/05/20 03:43:53;;;;;;;;;;;;;;;7.42;76.79;102708.94;5064961;28;19942;-74
2023/05/20 03:46:19;;;;;;;;;;;;;;;7.41;77.02;102709.16;5049024;28;19941;-75
2023/05/20 03:48:45;;;;;;;;;;;;;;;7.46;76.62;102706.72;5043243;28;19935;-74
2023/05/20 03:51:10;;;;;;;;;;;;;;;7.56;76.72;102707.16;5047413;28;20017;-71
2023/05/20 03:53:36;;;;;;;;;;;;;;;7.66;76.86;102694.25;5045399;28;20383;-73
2023/05/20 03:56:01;;;;;;;;;;;;;;;7.67;76.93;102698.56;5039104;28;19974;-72
2023/05/20 03:58:28;;;;;;;;;;;;;;;7.66;76.77;102702.25;5050030;28;19940;-73
2023/05/20 04:00:54;;;;;;;;;;;;;;;7.64;77.05;102704.28;5068734;28;19939;-73
2023/05/20 04:03:19;;;;;;;;;;;;;;;7.60;78.18;102705.72;5063337;28;19938;-72
2023/05/20 04:05:46;;;;;;;;;;;;;;;7.64;77.84;102709.63;5033111;28;19977;-73
2023/05/20 04:08:17;;;;;;;;;;;;;;;7.63;78.63;102705.31;5046052;28;20675;-74
2023/05/20 04:10:43;;;;;;;;;;;;;;;7.70;78.05;102708.00;5059615;28;19943;-74
2023/05/20 04:13:10;;;;;;;;;;;;;;;7.76;78.25;102718.69;5047030;28;19961;-72
2023/05/20 04:15:37;;;;;;;;;;;;;;;7.76;78.37;102716.00;5050600;28;19944;-73
2023/05/20 04:18:05;;;;;;;;;;;;;;;7.77;79.04;102714.97;5054353;28;19987;-73
2023/05/20 04:20:30;;;;;;;;;;;;;;;7.87;78.55;102719.94;5052328;28;19996;-71
2023/05/20 04:22:56;;;;;;;;;;;;;;;7.89;79.14;102718.69;5042883;28;20404;-71
2023/05/20 04:25:22;;;;;;;;;;;;;;;8.17;77.92;102715.84;5064338;28;19959;-73
2023/05/20 04:27:49;;;;;;;;;;;;;;;8.16;78.32;102718.72;5061921;28;20025;-72
2023/05/20 04:30:18;;;;;;;;;;;;;;;8.21;78.68;102710.94;5049214;28;20035;-70
2023/05/20 04:32:44;;;;;;;;;;;;;;;8.36;78.11;102714.22;5032069;28;19955;-72
2023/05/20 04:35:12;;;;;;;;;;;;;;;8.43;77.83;102717.72;5027855;28;20002;-74
2023/05/20 04:37:41;;;;;;;;;;;;;;;8.51;78.34;102710.53;5052211;28;19984;-71
2023/05/20 04:40:08;;;;;;;;;;;;;;;8.54;78.19;102700.25;5065335;28;19939;-71
2023/05/20 04:42:34;;;;;;;;;;;;;;;8.83;76.72;102704.28;5049973;28;20317;-70
2023/05/20 04:45:00;;;;;;;;;;;;;;;8.74;77.67;102706.38;5044309;28;19960;-71
2023/05/20 04:47:28;;;;;;;;;;;;;;;8.77;78.38;102698.97;5048078;28;19994;-73
2023/05/20 04:49:56;;;;;;;;;;;;;;;8.92;77.62;102703.03;5046271;28;19936;-73
2023/05/20 04:52:25;;;;;;;;;;;;;;;9.10;76.77;102713.03;5047625;28;20076;-72
2023/05/20 04:54:51;;;;;;;;;;;;;;;9.11;77.28;102705.84;5064848;28;20004;-73
2023/05/20 04:57:19;;;;;;;;;;;;;;;9.21;76.59;102711.53;5063201;28;19982;-73
2023/05/20 04:59:45;;;;;;;;;;;;;;;9.35;76.22;102702.47;5042040;28;19935;-73
2023/05/20 05:02:14;;;;;;;;;;;;;;;9.41;76.00;102712.28;5032200;28;20308;-73
2023/05/20 05:04:39;;;;;;;;;;;;;;;9.50;76.57;102711.00;5060028;28;20021;-72
2023/05/20 05:07:05;;;;;;;;;;;;;;;9.53;75.95;102710.56;5044032;28;20623;-72
2023/05/20 05:09:33;;;;;;;;;;;;;;;9.63;75.74;102712.78;5061408;28;19936;-70
2023/05/20 05:12:01;;;;;;;;;;;;;;;9.74;75.85;102711.25;5063611;28;20549;-72
2023/05/20 05:14:27;;;;;;;;;;;;;;;9.71;76.08;102711.72;5073094;28;20439;-71
2023/05/20 05:16:52;;;;;;;;;;;;;;;9.72;75.66;102711.50;5045083;28;19939;-72
2023/05/20 05:19:19;;;;;;;;;;;;;;;9.80;75.02;102711.22;5053667;28;20465;-73
2023/05/20 05:21:46;;;;;;;;;;;;;;;9.85;75.20;102711.41;5050627;28;19934;-71
2023/05/20 05:24:12;;;;;;;;;;;;;;;9.90;74.98;102705.41;5060885;28;19972;-71
2023/05/20 05:26:38;;;;;;;;;;;;;;;9.81;75.69;102706.69;5060577;28;19945;-72
2023/05/20 05:29:04;;;;;;;;;;;;;;;9.86;76.02;102714.91;5059130;28;19939;-72
2023/05/20 05:31:29;;;;;;;;;;;;;;;9.91;75.71;102711.59;5048875;28;20363;-71
2023/05/20 05:33:55;;;;;;;;;;;;;;;10.00;75.39;102713.75;5039991;28;19955;-72
2023/05/20 05:36:22;;;;;;;;;;;;;;;10.11;74.36;102706.91;5039541;28;20049;-72
2023/05/20 05:38:48;;;;;;;;;;;;;;;10.08;75.19;102705.44;5044890;28;19935;-72
2023/05/20 05:41:13;;;;;;;;;;;;;;;10.05;75.01;102707.75;5046019;28;20358;-74
2023/05/20 05:43:39;;;;;;;;;;;;;;;10.13;75.02;102704.81;5061902;28;19993;-73
2023/05/20 05:46:08;;;;;;;;;;;;;;;10.20;74.93;102702.91;5046947;28;19959;-72
2023/05/20 05:48:35;;;;;;;;;;;;;;;10.26;74.31;102703.91;5044818;28;20363;-71
2023/05/20 05:51:01;;;;;;;;;;;;;;;10.35;74.18;102700.72;5047787;28;19935;-71
2023/05/20 05:53:26;;;;;;;;;;;;;;;10.48;74.36;102705.13;5063080;28;20024;-71
2023/05/20 05:55:52;;;;;;;;;;;;;;;10.50;73.54;102704.91;5064408;28;20038;-72
2023/05/20 05:58:17;;;;;;;;;;;;;;;10.62;73.19;102703.97;5058336;28;20404;-74
2023/05/20 06:00:44;;;;;;;;;;;;;;;10.67;74.73;102708.66;5043611;28;19935;-72
2023/05/20 06:03:10;;;;;;;;;;;;;;;10.77;72.51;102711.66;5059257;28;19939;-75
2023/05/20 06:05:36;;;;;;;;;;;;;;;10.82;73.16;102698.41;5060665;28;20010;-72
2023/05/20 06:08:02;;;;;;;;;;;;;;;11.06;72.48;102701.22;5027853;28;19936;-74
2023/05/20 06:10:31;;;;;;;;;;;;;;;11.06;71.66;102702.03;5060802;28;19973;-71
2023/05/20 06:12:57;;;;;;;;;;;;;;;11.26;71.79;102701.81;5057054;28;20034;-72
2023/05/20 06:15:23;;;;;;;;;;;;;;;11.25;71.04;102707.41;5045912;28;19999;-72
2023/05/20 06:17:48;;;;;;;;;;;;;;;11.52;70.71;102703.31;5042803;28;19943;-73
2023/05/20 06:20:15;;;;;;;;;;;;;;;11.61;70.57;102707.31;5042030;28;19931;-72
2023/05/20 06:22:42;;;;;;;;;;;;;;;11.53;70.62;102701.44;5052798;28;19957;-73
2023/05/20 06:25:10;;;;;;;;;;;;;;;11.68;70.07;102693.78;5064836;28;19965;-70
2023/05/20 06:27:35;;;;;;;;;;;;;;;11.84;70.23;102692.31;5051395;28;19985;-72
2023/05/20 06:30:02;;;;;;;;;;;;;;;12.07;68.61;102683.50;5047457;28;19945;-70
2023/05/20 06:32:28;;;;;;;;;;;;;;;12.18;68.97;102686.19;5031564;28;19932;-73
2023/05/20 06:34:55;;;;;;;;;;;;;;;12.36;67.99;102687.13;5058627;28;20035;-72
2023/05/20 06:37:24;;;;;;;;;;;;;;;12.62;67.68;102686.66;5066627;28;20012;-71
2023/05/20 06:39:52;;;;;;;;;;;;;;;12.82;70.07;102686.25;5061157;28;19932;-70
2023/05/20 06:42:20;;;;;;;;;;;;;;;12.94;66.68;102688.91;5064138;28;20296;-71
2023/05/20 06:44:47;;;;;;;;;;;;;;;13.19;65.95;102672.47;5057116;28;19952;-71
2023/05/20 06:47:20;;;;;;;;;;;;;;;13.05;65.62;102680.00;5036036;28;19930;-72
2023/05/20 06:49:47;;;;;;;;;;;;;;;13.21;64.80;102679.28;5066671;28;20011;-70
2023/05/20 06:52:12;;;;;;;;;;;;;;;13.37;65.39;102683.06;5067855;28;20014;-71
2023/05/20 06:54:40;;;;;;;;;;;;;;;13.48;64.91;102667.91;5048348;28;20052;-73
2023/05/20 06:57:07;;;;;;;;;;;;;;;13.25;63.85;102672.34;5045411;28;20526;-72
2023/05/20 06:59:34;;;;;;;;;;;;;;;13.28;63.75;102673.75;5050066;28;19937;-73
2023/05/20 07:02:02;;;;;;;;;;;;;;;13.66;64.08;102663.13;5049780;28;19936;-71
2023/05/20 07:04:28;;;;;;;;;;;;;;;13.45;64.61;102668.41;5064881;28;19954;-74
2023/05/20 07:06:53;;;;;;;;;;;;;;;13.48;63.99;102673.28;5059031;28;20023;-71
2023/05/20 07:09:19;;;;;;;;;;;;;;;13.27;64.00;102662.16;5058999;28;19948;-71
2023/05/20 07:11:45;;;;;;;;;;;;;;;13.28;64.42;102665.69;5033120;28;20060;-72
2023/05/20 07:14:11;;;;;;;;;;;;;;;13.44;64.54;102672.16;5043413;28;20400;-73
2023/05/20 07:16:36;;;;;;;;;;;;;;;13.71;63.82;102664.28;5064773;28;19933;-71
2023/05/20 07:19:05;;;;;;;;;;;;;;;13.76;63.50;102665.19;5044193;28;20001;-73
2023/05/20 07:21:32;;;;;;;;;;;;;;;13.67;62.97;102672.03;5063529;28;20000;-74
2023/05/20 07:24:05;;;;;;;;;;;;;;;14.00;64.44;102670.41;5041245;28;20060;-71
2023/05/20 07:26:35;;;;;;;;;;;;;;;14.49;62.78;102674.13;5053146;28;19932;-70
2023/05/20 07:29:01;;;;;;;;;;;;;;;14.40;60.99;102665.63;5066415;28;19970;-72
2023/05/20 07:31:27;;;;;;;;;;;;;;;14.31;60.62;102666.31;5062000;28;19931;-72
2023/05/20 07:33:52;;;;;;;;;;;;;;;14.44;60.63;102664.06;5047321;28;20032;-74
2023/05/20 07:36:18;;;;;;;;;;;;;;;14.55;60.46;102670.44;5048109;28;19932;-70
2023/05/20 07:38:47;;;;;;;;;;;;;;;14.97;59.45;102662.63;5057947;28;19939;-71
2023/05/20 07:41:13;;;;;;;;;;;;;;;14.98;58.88;102661.56;5061646;28;20396;-70
2023/05/20 07:43:38;;;;;;;;;;;;;;;15.18;59.15;102657.44;5050052;28;19933;-70
2023/05/20 07:46:05;;;;;;;;;;;;;;;15.33;58.43;102656.78;5041733;28;19952;-73
2023/05/20 07:48:31;;;;;;;;;;;;;;;15.62;57.68;102654.66;5063903;28;19941;-70
2023/05/20 07:50:58;;;;;;;;;;;;;;;15.81;56.54;102642.38;5030863;28;20361;-73
2023/05/20 07:53:24;;;;;;;;;;;;;;;15.67;56.33;102643.91;5060477;28;20420;-74
2023/05/20 07:55:50;;;;;;;;;;;;;;;15.53;56.75;102649.69;5052214;28;19946;-74
2023/05/20 07:58:16;;;;;;;;;;;;;;;15.69;56.78;102649.84;5050947;28;19942;-71
2023/05/20 08:00:43;;;;;;;;;;;;;;;15.63;55.92;102656.28;5049121;28;19935;-71
2023/05/20 08:03:10;;;;;;;;;;;;;;;15.74;56.70;102649.91;5061330;28;19930;-73
2023/05/20 08:05:56;;;;;;;;;;;;;;;16.28;54.58;102642.44;5059239;28;20447;-73
2023/05/20 08:08:27;;;;;;;;;;;;;;;16.12;55.20;102646.09;5063013;28;19980;-73
2023/05/20 08:11:00;;;;;;;;;;;;;;;16.10;55.30;102649.06;5065680;28;19928;-71
2023/05/20 08:13:32;;;;;;;;;;;;;;;15.80;55.62;102651.56;5062319;28;19951;-72
2023/05/20 08:15:59;;;;;;;;;;;;;;;16.28;53.74;102647.03;5066488;28;20000;-74
2023/05/20 08:18:26;;;;;;;;;;;;;;;16.27;54.79;102634.59;5049407;28;20436;-73
2023/05/20 08:20:52;;;;;;;;;;;;;;;16.11;53.19;102639.88;5064138;28;19932;-74
2023/05/20 08:23:18;;;;;;;;;;;;;;;16.11;52.54;102637.19;5065291;28;20470;-71
2023/05/20 08:25:45;;;;;;;;;;;;;;;16.39;52.59;102635.19;5052433;28;20416;-72
2023/05/20 08:28:11;;;;;;;;;;;;;;;16.60;51.34;102634.22;5049726;28;19981;-74
2023/05/20 08:30:37;;;;;;;;;;;;;;;16.24;51.48;102627.81;5048766;28;19986;-74
2023/05/20 08:33:03;;;;;;;;;;;;;;;16.06;51.90;102629.06;5058950;28;19951;-72
2023/05/20 08:35:29;;;;;;;;;;;;;;;16.09;51.87;102627.72;5044454;28;20332;-74
2023/05/20 08:37:57;;;;;;;;;;;;;;;16.05;52.28;102629.31;5049170;28;19940;-73
2023/05/20 08:40:28;;;;;;;;;;;;;;;16.11;51.30;102622.84;5046023;28;19964;-72
2023/05/20 08:42:54;;;;;;;;;;;;;;;16.69;51.76;102620.19;5049926;28;19975;-71
2023/05/20 08:45:26;;;;;;;;;;;;;;;16.89;50.85;102626.50;5051101;28;19960;-72
2023/05/20 08:47:53;;;;;;;;;;;;;;;17.27;50.38;102620.88;5047564;28;20023;-75
2023/05/20 08:50:19;;;;;;;;;;;;;;;17.10;49.85;102621.16;5054894;28;20047;-72
2023/05/20 08:52:50;;;;;;;;;;;;;;;16.93;50.93;102624.06;5060525;28;20055;-74
2023/05/20 08:55:23;;;;;;;;;;;;;;;16.75;51.22;102624.56;5065060;28;20244;-73
2023/05/20 08:57:49;;;;;;;;;;;;;;;16.25;51.71;102621.31;5057459;28;21579;-74
2023/05/20 09:00:15;;;;;;;;;;;;;;;16.65;50.65;102618.00;5047744;28;19939;-73
2023/05/20 09:02:41;;;;;;;;;;;;;;;17.11;50.45;102618.16;5061556;28;20036;-73
2023/05/20 09:05:09;;;;;;;;;;;;;;;17.84;48.75;102614.44;5065844;28;20011;-72
2023/05/20 09:07:35;;;;;;;;;;;;;;;17.94;48.41;102611.69;5060123;28;19930;-72
2023/05/20 09:10:01;;;;;;;;;;;;;;;18.65;46.17;102614.19;5047363;28;19933;-73
2023/05/20 09:12:27;;;;;;;;;;;;;;;17.91;47.25;102604.13;5062100;28;19932;-74
2023/05/20 09:14:53;;;;;;;;;;;;;;;18.07;48.31;102592.16;5062846;28;20351;-75
2023/05/20 09:17:20;;;;;;;;;;;;;;;18.00;48.52;102589.72;5060509;28;19990;-72
2023/05/20 09:19:48;;;;;;;;;;;;;;;17.40;48.67;102604.91;5047182;28;19940;-72
2023/05/20 09:22:13;;;;;;;;;;;;;;;16.31;51.22;102597.84;5045944;28;19931;-74
2023/05/20 09:24:40;;;;;;;;;;;;;;;16.54;50.99;102597.41;5058372;28;20432;-72
2023/05/20 09:27:05;;;;;;;;;;;;;;;16.44;50.06;102593.84;5054142;28;19999;-70
2023/05/20 09:29:32;;;;;;;;;;;;;;;16.26;50.40;102593.22;5062041;28;19966;-75
2023/05/20 09:32:00;;;;;;;;;;;;;;;16.16;49.50;102584.25;5064482;28;19929;-73
2023/05/20 09:34:26;;;;;;;;;;;;;;;16.16;49.87;102590.47;5046366;28;20149;-73
2023/05/20 09:36:52;;;;;;;;;;;;;;;16.35;50.72;102588.94;5061566;28;19936;-72
2023/05/20 09:39:21;;;;;;;;;;;;;;;16.60;48.40;102580.13;5048585;28;19940;-72
2023/05/20 09:42:01;;;;;;;;;;;;;;;16.38;48.55;102582.19;5060426;28;19938;-72
2023/05/20 09:44:27;;;;;;;;;;;;;;;16.48;49.67;102581.44;5061515;28;19957;-72
2023/05/20 09:46:53;;;;;;;;;;;;;;;16.13;49.56;102576.69;5063839;28;20039;-72
2023/05/20 09:49:22;;;;;;;;;;;;;;;16.18;49.34;102588.31;5048721;28;19940;-73
2023/05/20 09:51:49;;;;;;;;;;;;;;;16.28;49.65;102577.56;5062589;28;19959;-74
2023/05/20 09:54:18;;;;;;;;;;;;;;;16.23;50.47;102590.22;5063983;28;20006;-72
2023/05/20 09:56:45;;;;;;;;;;;;;;;16.59;49.29;102577.66;5064264;28;19992;-73
2023/05/20 09:59:12;;;;;;;;;;;;;;;15.99;50.24;102587.94;5048265;28;19942;-72
2023/05/20 10:01:38;;;;;;;;;;;;;;;16.13;50.41;102580.19;5062830;28;19940;-75
2023/05/20 10:04:05;;;;;;;;;;;;;;;16.27;51.07;102573.22;5043759;28;19983;-73
2023/05/20 10:06:54;;;;;;;;;;;;;;;16.33;50.52;102574.88;5063391;28;19957;-74
2023/05/20 10:09:39;;;;;;;;;;;;;;;16.36;49.48;102570.81;5038592;28;19931;-73
2023/05/20 10:12:23;;;;;;;;;;;;;;;16.34;50.16;102570.28;5049264;28;19955;-74
2023/05/20 10:14:59;;;;;;;;;;;;;;;16.30;50.80;102563.75;5065844;28;19966;-73
2023/05/20 10:17:27;;;;;;;;;;;;;;;16.40;49.81;102563.81;5066036;28;19940;-73
2023/05/20 10:19:59;;;;;;;;;;;;;;;16.88;50.40;102553.72;5043373;28;19933;-74
2023/05/20 10:22:27;;;;;;;;;;;;;;;17.10;48.65;102545.34;5060129;28;19972;-74
2023/05/20 10:24:57;;;;;;;;;;;;;;;17.77;48.60;102548.88;5066068;28;20510;-73
2023/05/20 10:27:26;;;;;;;;;;;;;;;18.51;46.20;102550.78;5057343;28;20041;-74
2023/05/20 10:29:52;;;;;;;;;;;;;;;18.27;45.70;102542.47;5060455;28;19948;-72
2023/05/20 10:32:26;;;;;;;;;;;;;;;18.05;47.18;102553.66;5056445;28;19928;-75
2023/05/20 10:34:51;;;;;;;;;;;;;;;18.27;46.72;102548.69;5044014;28;19959;-73
2023/05/20 10:37:25;;;;;;;;;;;;;;;18.37;46.92;102541.63;5061399;28;20403;-74
2023/05/20 10:39:50;;;;;;;;;;;;;;;18.46;46.43;102534.50;5039043;28;20319;-74
2023/05/20 10:42:26;;;;;;;;;;;;;;;18.12;44.57;102540.63;5065666;28;19934;-75
2023/05/20 10:44:51;;;;;;;;;;;;;;;17.99;47.19;102530.38;5047669;28;19965;-73
2023/05/20 10:47:17;;;;;;;;;;;;;;;17.83;47.62;102531.50;5064099;28;19938;-75
2023/05/20 10:49:44;;;;;;;;;;;;;;;17.44;50.32;102530.19;5044160;28;19982;-75
2023/05/20 10:52:11;;;;;;;;;;;;;;;16.58;50.33;102536.28;5064325;28;20394;-74
2023/05/20 10:54:44;;;;;;;;;;;;;;;16.53;50.73;102539.00;5064110;28;19961;-75
2023/05/20 10:57:10;;;;;;;;;;;;;;;16.51;51.04;102526.78;5059682;28;20016;-75
2023/05/20 10:59:36;;;;;;;;;;;;;;;16.78;51.18;102518.50;5059337;28;20344;-74
2023/05/20 11:02:02;;;;;;;;;;;;;;;17.02;49.98;102516.09;5063496;28;19941;-74
2023/05/20 11:04:31;;;;;;;;;;;;;;;16.58;50.51;102511.94;5065610;28;19951;-75
2023/05/20 11:06:57;;;;;;;;;;;;;;;16.61;52.03;102516.03;5034193;28;19961;-74
2023/05/20 11:09:23;;;;;;;;;;;;;;;16.42;50.87;102514.88;5048110;28;20314;-76
2023/05/20 11:11:52;;;;;;;;;;;;;;;16.27;52.50;102512.94;5065946;28;19939;-73
2023/05/20 11:14:18;;;;;;;;;;;;;;;16.39;52.14;102521.63;5065662;28;19960;-71
2023/05/20 11:16:44;;;;;;;;;;;;;;;16.62;51.19;102523.84;5062751;28;19947;-72
2023/05/20 11:19:17;;;;;;;;;;;;;;;16.36;50.74;102524.84;5049270;28;19944;-74
2023/05/20 11:21:43;;;;;;;;;;;;;;;16.26;50.81;102514.03;5059196;28;19935;-74
2023/05/20 11:24:09;;;;;;;;;;;;;;;16.28;51.06;102514.56;5061106;28;19928;-72
2023/05/20 11:26:35;;;;;;;;;;;;;;;15.89;52.09;102517.63;5066123;28;19968;-72
2023/05/20 11:29:01;;;;;;;;;;;;;;;16.06;52.02;102515.56;5065370;28;20386;-74
2023/05/20 11:31:26;;;;;;;;;;;;;;;16.24;52.33;102508.03;5049674;28;19989;-74
2023/05/20 11:33:52;;;;;;;;;;;;;;;15.90;52.77;102519.25;5050127;28;19965;-73
2023/05/20 11:36:17;;;;;;;;;;;;;;;15.76;52.27;102509.97;5064416;28;20416;-71
2023/05/20 11:38:45;;;;;;;;;;;;;;;15.96;53.34;102504.69;5056759;28;19933;-73
2023/05/20 11:41:10;;;;;;;;;;;;;;;15.86;53.00;102512.75;5045408;28;20406;-73
2023/05/20 11:43:36;;;;;;;;;;;;;;;16.48;51.86;102506.50;5062868;28;19938;-72
2023/05/20 11:46:03;;;;;;;;;;;;;;;16.70;50.42;102497.41;5059775;28;19958;-73
2023/05/20 11:48:29;;;;;;;;;;;;;;;16.98;52.31;102498.78;5066066;28;19939;-73
2023/05/20 11:50:55;;;;;;;;;;;;;;;17.06;49.90;102499.03;5033898;28;19934;-72
2023/05/20 11:53:21;;;;;;;;;;;;;;;16.81;50.56;102504.47;5049004;28;19957;-73
2023/05/20 11:55:54;;;;;;;;;;;;;;;16.23;51.63;102509.13;5045308;28;20437;-74
2023/05/20 11:58:22;;;;;;;;;;;;;;;16.17;51.80;102504.78;5046322;28;19979;-71
2023/05/20 12:00:48;;;;;;;;;;;;;;;16.11;51.15;102507.44;5061116;28;20300;-74
2023/05/20 12:03:13;;;;;;;;;;;;;;;16.13;51.75;102506.41;5048994;28;19931;-74
2023/05/20 12:05:39;;;;;;;;;;;;;;;16.44;51.07;102510.81;5063733;28;20041;-73
2023/05/20 12:08:05;;;;;;;;;;;;;;;16.72;51.26;102504.16;5058199;28;19940;-72
2023/05/20 12:10:31;;;;;;;;;;;;;;;16.61;51.41;102510.59;5059863;28;20015;-70
2023/05/20 12:12:56;;;;;;;;;;;;;;;16.33;51.17;102493.78;5063296;28;20000;-71
2023/05/20 12:15:22;;;;;;;;;;;;;;;16.32;51.17;102496.72;5049649;28;19951;-73
2023/05/20 12:17:49;;;;;;;;;;;;;;;16.18;51.55;102498.28;5045557;28;19938;-72
2023/05/20 12:20:16;;;;;;;;;;;;;;;16.43;52.79;102487.56;5050194;28;19947;-72
2023/05/20 12:22:44;;;;;;;;;;;;;;;16.30;53.50;102497.00;5064597;28;20341;-76
2023/05/20 12:25:14;;;;;;;;;;;;;;;16.52;53.69;102495.97;5065054;28;19957;-74
2023/05/20 12:27:40;;;;;;;;;;;;;;;16.44;52.11;102489.19;5048918;28;20002;-72
2023/05/20 12:30:06;;;;;;;;;;;;;;;16.84;52.61;102487.66;5059590;28;20424;-73
2023/05/20 12:32:32;;;;;;;;;;;;;;;17.10;50.92;102475.78;5073823;28;20389;-73
2023/05/20 12:34:57;;;;;;;;;;;;;;;17.40;51.34;102485.75;5041354;28;19948;-74
2023/05/20 12:37:23;;;;;;;;;;;;;;;17.59;49.30;102477.88;5063583;28;19941;-73
2023/05/20 12:39:49;;;;;;;;;;;;;;;17.53;49.72;102483.56;5063860;28;20021;-74